Weather History for Kununurra, WE

Change the Weather History Date:

Monday, October 28, 2013

  Actual Average Record
Temperature  
Mean Temperature 90 °F -  
Max Temperature 103 °F - - ()
Min Temperature 77 °F - - ()
Cooling Degree Days 25    
Growing Degree Days 40 (Base 50)    
Moisture  
Dew Point 68 °F    
Average Humidity 52    
Maximum Humidity 89    
Minimum Humidity 13    
Precipitation  
Precipitation 0.00 in - - ()
Sea Level Pressure  
Sea Level Pressure 29.85 in    
Wind  
Wind Speed 7 mph ()    
Max Wind Speed 14 mph    
Max Gust Speed -    
Visibility 6.3 miles    
Events      
T = Trace of Precipitation, MM = Missing Value Source: Averaged Metar Reports

Daily Weather History Graph

Daily Weather History Graph

Search for Another Location

Airport:

Trip Planner

Search our weather history database for the weather conditions in past years. The results will help you decide how hot, cold, wet, or windy it might be!

Date:

Astronomy

Oct. 28, 2013 Rise Set
Actual Time 4:50 AM WST 5:27 PM WST
Civil Twilight 4:28 AM WST 5:49 PM WST
Nautical Twilight 4:02 AM WST 6:15 PM WST
Astronomical Twilight 3:35 AM WST 6:42 PM WST
Moon 12:06 AM WST (10/28) 12:00 PM WST (10/28)
Length of Visible Light 13h 21m
Length of Day
12h 37m
Last Quarter, 39% of the Moon is Illuminated
Oct 28
Last Quarter
Nov 3
New
Nov 10
First Quarter
Nov 17
Full
Nov 26
Last Quarter

Hourly Weather History & Observations

Time (WST) Temp. Heat Index Dew Point Humidity Pressure Visibility Wind Dir Wind Speed Gust Speed Precip Events Conditions
12:00 AM 83 °F - 76 °F 73% 29.89 in - NNW 9.2 mph - -  
12:00 AM 84.2 °F 92.3 °F 75.2 °F 74% 29.89 in 6.2 mi NNW 9.2 mph - N/A   Unknown
12:30 AM 82.4 °F 89.5 °F 75.2 °F 79% 29.86 in 6.2 mi West 6.9 mph - N/A   Unknown
1:00 AM 82.4 °F 90.9 °F 77.0 °F 84% 29.86 in 6.2 mi NNW 3.5 mph - N/A   Unknown
1:30 AM 80.6 °F 86.2 °F 75.2 °F 84% 29.83 in 6.2 mi West 5.8 mph - N/A   Unknown
2:00 AM 82.4 °F 88.2 °F 73.4 °F 74% 29.83 in 6.2 mi West 6.9 mph - N/A   Unknown
2:30 AM 80.6 °F 85.4 °F 73.4 °F 79% 29.83 in 6.2 mi WNW 4.6 mph - N/A   Unknown
3:00 AM 80 °F - 74 °F 79% 29.84 in - WSW 2.3 mph - -  
3:00 AM 78.8 °F - 75.2 °F 89% 29.83 in 6.2 mi WSW 2.3 mph - N/A   Unknown
3:30 AM 78.8 °F - 75.2 °F 89% 29.86 in 6.2 mi Calm Calm - N/A   Unknown
4:00 AM 78.8 °F - 75.2 °F 89% 29.86 in 6.2 mi NE 5.8 mph - N/A   Unknown
4:30 AM 78.8 °F - 73.4 °F 83% 29.89 in 6.2 mi ENE 6.9 mph - N/A   Unknown
5:00 AM 78 °F - 74 °F 83% 29.89 in - NNE 5.8 mph - -  
5:00 AM 78.8 °F - 73.4 °F 83% 29.89 in 6.2 mi NNE 5.8 mph - N/A   Unknown
5:30 AM 80.6 °F 86.2 °F 75.2 °F 84% 29.89 in 6.2 mi NNE 5.8 mph - N/A   Unknown
6:00 AM 81 °F - 75 °F 77% 29.91 in 6 mi North 5.8 mph - -   Partly Cloudy
6:00 AM 80.6 °F 86.2 °F 75.2 °F 84% 29.92 in 6.2 mi North 5.8 mph - N/A   Unknown
6:30 AM 84.2 °F 92.3 °F 75.2 °F 74% 29.92 in 6.2 mi NE 3.5 mph - N/A   Unknown
7:00 AM 86.0 °F 93.4 °F 73.4 °F 66% 29.92 in 6.2 mi North 4.6 mph - N/A   Unknown
7:30 AM 86.0 °F 93.4 °F 73.4 °F 66% 29.92 in 6.2 mi NNE 8.1 mph - N/A   Unknown
8:00 AM 87 °F - 74 °F 57% 29.94 in - North 8.1 mph - -  
8:00 AM 87.8 °F 95.6 °F 73.4 °F 62% 29.92 in 6.2 mi North 8.1 mph - N/A   Unknown
8:30 AM 89.6 °F 98.2 °F 73.4 °F 59% 29.92 in 6.2 mi North 5.8 mph - N/A   Unknown
9:00 AM 91 °F - 73 °F 46% 29.92 in - North 6.9 mph - -  
9:00 AM 91.4 °F 100.1 °F 73.4 °F 55% 29.92 in 6.2 mi North 6.9 mph - N/A   Unknown
9:30 AM 93.2 °F 100.5 °F 71.6 °F 49% 29.92 in 6.2 mi North 8.1 mph - N/A   Unknown
10:00 AM 96.8 °F 98.0 °F 62.6 °F 32% 29.89 in 6.2 mi North 10.4 mph - N/A   Unknown
10:30 AM 96.8 °F 100.7 °F 66.2 °F 37% 29.89 in 6.2 mi NNW 5.8 mph - N/A   Unknown
11:00 AM 98 °F - 64 °F 23% 29.87 in - NE 6.9 mph - -  
11:00 AM 98.6 °F 101.0 °F 64.4 °F 32% 29.86 in 6.2 mi NE 6.9 mph - N/A   Unknown
11:30 AM 98.6 °F 100.0 °F 62.6 °F 30% 29.83 in 6.2 mi NE 8.1 mph - N/A   Unknown
12:00 PM 100 °F - 63 °F 20% 29.83 in - NE 8.1 mph - -  
12:00 PM 100.4 °F 102.4 °F 62.6 °F 29% 29.83 in 6.2 mi NE 8.1 mph - N/A   Unknown
12:30 PM 102.2 °F 104.2 °F 62.6 °F 27% 29.80 in 6.2 mi North 9.2 mph - N/A   Unknown
1:00 PM 100.4 °F 101.3 °F 60.8 °F 27% 29.80 in 6.2 mi West 10.4 mph - N/A   Scattered Clouds
1:30 PM 100.4 °F 100.2 °F 59.0 °F 25% 29.77 in 6.2 mi NNE 8.1 mph - N/A   Unknown
2:00 PM 99 °F - 58 °F 17% 29.77 in - North 10.4 mph - -  
2:00 PM 98.6 °F 98.5 °F 59.0 °F 27% 29.77 in 6.2 mi North 10.4 mph - N/A   Scattered Clouds
2:30 PM 100.4 °F 100.2 °F 59.0 °F 25% 29.77 in 6.2 mi North 12.7 mph - N/A   Unknown
3:00 PM 102 °F - 56 °F 13% 29.75 in 12 mi NNE 8.1 mph - -   Partly Cloudy
3:00 PM 102.2 °F 100.9 °F 55.4 °F 21% 29.74 in 6.2 mi NNE 8.1 mph - N/A   Unknown
3:30 PM 102.2 °F 100.9 °F 55.4 °F 21% 29.74 in 6.2 mi NNE 10.4 mph - N/A   Unknown
4:00 PM 100.4 °F 100.2 °F 59.0 °F 25% 29.74 in 6.2 mi North 11.5 mph - N/A   Unknown
4:30 PM 98.6 °F 98.5 °F 59.0 °F 27% 29.74 in 6.2 mi North 11.5 mph - N/A   Unknown
5:00 PM 95 °F - 63 °F 25% 29.77 in - North 13.8 mph - -  
5:00 PM 95.0 °F 96.0 °F 62.6 °F 34% 29.77 in 6.2 mi North 13.8 mph - N/A   Unknown
5:30 PM 93.2 °F 94.9 °F 64.4 °F 38% 29.77 in 6.2 mi North 13.8 mph - N/A   Unknown
6:00 PM 92 °F - 64 °F 30% 29.79 in - North 13.8 mph - -  
6:00 PM 91.4 °F 93.2 °F 64.4 °F 41% 29.80 in 6.2 mi North 13.8 mph - N/A   Unknown
6:30 PM 91.4 °F 93.2 °F 64.4 °F 41% 29.80 in 6.2 mi North 13.8 mph - N/A   Unknown
7:00 PM 89.6 °F 91.1 °F 64.4 °F 43% 29.83 in 6.2 mi North 12.7 mph - N/A   Unknown
7:30 PM 87.8 °F 89.4 °F 64.4 °F 46% 29.86 in 6.2 mi North 8.1 mph - N/A   Unknown
8:00 PM 87 °F - 65 °F 39% 29.87 in - North 6.9 mph - -  
8:00 PM 87.8 °F 90.4 °F 66.2 °F 49% 29.86 in 6.2 mi North 6.9 mph - N/A   Unknown
8:30 PM 86.0 °F 88.2 °F 66.2 °F 51% 29.89 in 6.2 mi North 9.2 mph - N/A   Unknown
9:00 PM 85 °F - 66 °F 44% 29.88 in - NNE 5.8 mph - -  
9:00 PM 86.0 °F 88.2 °F 66.2 °F 51% 29.89 in 6.2 mi NNE 5.8 mph - N/A   Unknown
9:30 PM 84.2 °F 86.6 °F 66.2 °F 55% 29.89 in 6.2 mi North 6.9 mph - N/A   Unknown
10:00 PM 84.2 °F 87.3 °F 68.0 °F 58% 29.86 in 6.2 mi North 8.1 mph - N/A   Unknown
10:30 PM 82.4 °F 85.4 °F 68.0 °F 62% 29.86 in 6.2 mi North 6.9 mph - N/A   Unknown
11:00 PM 81 °F - 68 °F 57% 29.86 in - North 5.8 mph - -  
11:00 PM 80.6 °F 83.2 °F 68.0 °F 65% 29.86 in 6.2 mi North 5.8 mph - N/A   Unknown
11:30 PM 80.6 °F 83.9 °F 69.8 °F 70% 29.86 in 6.2 mi North 8.1 mph - N/A   Unknown